sensor_id;sensor_type;location;lat;lon;timestamp;P1;durP1;ratioP1;P2;durP2;ratioP2
64293;SDS011;50636;45.596;5.258;2023-04-26T00:02:13;25.20;;;5.97;;
64293;SDS011;50636;45.596;5.258;2023-04-26T00:04:40;17.25;;;5.95;;
64293;SDS011;50636;45.596;5.258;2023-04-26T00:07:05;12.63;;;6.22;;
64293;SDS011;50636;45.596;5.258;2023-04-26T00:09:31;13.10;;;5.72;;
64293;SDS011;50636;45.596;5.258;2023-04-26T00:11:57;11.95;;;4.68;;
64293;SDS011;50636;45.596;5.258;2023-04-26T00:14:24;9.75;;;4.60;;
64293;SDS011;50636;45.596;5.258;2023-04-26T00:16:50;14.55;;;5.90;;
64293;SDS011;50636;45.596;5.258;2023-04-26T00:19:16;13.75;;;5.22;;
64293;SDS011;50636;45.596;5.258;2023-04-26T00:21:42;11.27;;;4.85;;
64293;SDS011;50636;45.596;5.258;2023-04-26T00:24:08;14.52;;;4.57;;
64293;SDS011;50636;45.596;5.258;2023-04-26T00:26:34;7.40;;;3.72;;
64293;SDS011;50636;45.596;5.258;2023-04-26T00:29:00;9.77;;;4.47;;
64293;SDS011;50636;45.596;5.258;2023-04-26T00:31:27;12.68;;;4.80;;
64293;SDS011;50636;45.596;5.258;2023-04-26T00:33:53;8.32;;;4.45;;
64293;SDS011;50636;45.596;5.258;2023-04-26T00:36:18;11.93;;;5.32;;
64293;SDS011;50636;45.596;5.258;2023-04-26T00:38:44;10.15;;;6.20;;
64293;SDS011;50636;45.596;5.258;2023-04-26T00:41:11;13.05;;;5.10;;
64293;SDS011;50636;45.596;5.258;2023-04-26T00:43:36;12.93;;;5.05;;
64293;SDS011;50636;45.596;5.258;2023-04-26T00:46:04;14.65;;;12.43;;
64293;SDS011;50636;45.596;5.258;2023-04-26T00:48:30;15.07;;;10.15;;
64293;SDS011;50636;45.596;5.258;2023-04-26T00:50:56;11.70;;;9.52;;
64293;SDS011;50636;45.596;5.258;2023-04-26T00:53:22;7.05;;;5.38;;
64293;SDS011;50636;45.596;5.258;2023-04-26T00:55:48;7.18;;;4.53;;
64293;SDS011;50636;45.596;5.258;2023-04-26T00:58:15;4.90;;;3.58;;
64293;SDS011;50636;45.596;5.258;2023-04-26T01:00:42;11.13;;;3.90;;
64293;SDS011;50636;45.596;5.258;2023-04-26T01:03:09;10.68;;;3.75;;
64293;SDS011;50636;45.596;5.258;2023-04-26T01:05:36;14.02;;;3.67;;
64293;SDS011;50636;45.596;5.258;2023-04-26T01:08:03;11.90;;;3.70;;
64293;SDS011;50636;45.596;5.258;2023-04-26T01:10:30;10.13;;;3.10;;
64293;SDS011;50636;45.596;5.258;2023-04-26T01:12:57;13.57;;;3.80;;
64293;SDS011;50636;45.596;5.258;2023-04-26T01:15:24;14.40;;;4.85;;
64293;SDS011;50636;45.596;5.258;2023-04-26T01:17:52;16.77;;;4.25;;
64293;SDS011;50636;45.596;5.258;2023-04-26T01:20:18;10.27;;;4.85;;
64293;SDS011;50636;45.596;5.258;2023-04-26T01:22:45;10.27;;;3.08;;
64293;SDS011;50636;45.596;5.258;2023-04-26T01:25:11;16.45;;;3.78;;
64293;SDS011;50636;45.596;5.258;2023-04-26T01:27:37;11.45;;;3.40;;
64293;SDS011;50636;45.596;5.258;2023-04-26T01:30:04;10.27;;;4.18;;
64293;SDS011;50636;45.596;5.258;2023-04-26T01:32:30;9.00;;;3.88;;
64293;SDS011;50636;45.596;5.258;2023-04-26T01:34:56;24.85;;;5.50;;
64293;SDS011;50636;45.596;5.258;2023-04-26T01:37:22;11.77;;;5.72;;
64293;SDS011;50636;45.596;5.258;2023-04-26T01:39:49;13.10;;;4.50;;
64293;SDS011;50636;45.596;5.258;2023-04-26T01:42:14;5.85;;;3.92;;
64293;SDS011;50636;45.596;5.258;2023-04-26T01:44:40;10.02;;;4.00;;
64293;SDS011;50636;45.596;5.258;2023-04-26T01:47:06;12.30;;;4.00;;
64293;SDS011;50636;45.596;5.258;2023-04-26T01:49:32;14.45;;;4.38;;
64293;SDS011;50636;45.596;5.258;2023-04-26T01:51:58;9.52;;;4.38;;
64293;SDS011;50636;45.596;5.258;2023-04-26T01:54:24;16.55;;;5.35;;
64293;SDS011;50636;45.596;5.258;2023-04-26T01:56:49;11.90;;;5.30;;
64293;SDS011;50636;45.596;5.258;2023-04-26T01:59:15;9.25;;;4.40;;
64293;SDS011;50636;45.596;5.258;2023-04-26T02:01:41;14.05;;;4.70;;
64293;SDS011;50636;45.596;5.258;2023-04-26T02:04:10;19.77;;;5.78;;
64293;SDS011;50636;45.596;5.258;2023-04-26T02:06:36;10.98;;;5.53;;
64293;SDS011;50636;45.596;5.258;2023-04-26T02:09:05;17.15;;;6.22;;
64293;SDS011;50636;45.596;5.258;2023-04-26T02:11:33;8.32;;;4.40;;
64293;SDS011;50636;45.596;5.258;2023-04-26T02:13:59;13.63;;;4.82;;
64293;SDS011;50636;45.596;5.258;2023-04-26T02:16:26;10.05;;;4.38;;
64293;SDS011;50636;45.596;5.258;2023-04-26T02:18:52;12.25;;;4.38;;
64293;SDS011;50636;45.596;5.258;2023-04-26T02:21:19;11.95;;;4.65;;
64293;SDS011;50636;45.596;5.258;2023-04-26T02:23:46;9.15;;;4.82;;
64293;SDS011;50636;45.596;5.258;2023-04-26T02:26:12;13.85;;;6.20;;
64293;SDS011;50636;45.596;5.258;2023-04-26T02:28:38;6.05;;;4.20;;
64293;SDS011;50636;45.596;5.258;2023-04-26T02:31:04;18.00;;;6.25;;
64293;SDS011;50636;45.596;5.258;2023-04-26T02:33:30;13.73;;;5.63;;
64293;SDS011;50636;45.596;5.258;2023-04-26T02:35:56;18.52;;;5.75;;
64293;SDS011;50636;45.596;5.258;2023-04-26T02:38:23;8.63;;;5.10;;
64293;SDS011;50636;45.596;5.258;2023-04-26T02:40:58;12.52;;;5.53;;
64293;SDS011;50636;45.596;5.258;2023-04-26T02:43:25;13.15;;;5.20;;
64293;SDS011;50636;45.596;5.258;2023-04-26T02:45:51;14.45;;;5.20;;
64293;SDS011;50636;45.596;5.258;2023-04-26T02:48:17;12.63;;;5.10;;
64293;SDS011;50636;45.596;5.258;2023-04-26T02:50:43;17.67;;;5.88;;
64293;SDS011;50636;45.596;5.258;2023-04-26T02:53:09;9.98;;;4.72;;
64293;SDS011;50636;45.596;5.258;2023-04-26T02:55:36;25.67;;;6.05;;
64293;SDS011;50636;45.596;5.258;2023-04-26T02:58:03;29.65;;;7.80;;
64293;SDS011;50636;45.596;5.258;2023-04-26T03:00:29;11.68;;;7.07;;
64293;SDS011;50636;45.596;5.258;2023-04-26T03:02:55;9.88;;;5.65;;
64293;SDS011;50636;45.596;5.258;2023-04-26T03:05:21;9.95;;;4.80;;
64293;SDS011;50636;45.596;5.258;2023-04-26T03:07:47;15.23;;;5.57;;
64293;SDS011;50636;45.596;5.258;2023-04-26T03:10:13;20.42;;;5.38;;
64293;SDS011;50636;45.596;5.258;2023-04-26T03:12:38;15.65;;;9.60;;
64293;SDS011;50636;45.596;5.258;2023-04-26T03:15:05;15.07;;;5.47;;
64293;SDS011;50636;45.596;5.258;2023-04-26T03:17:31;16.60;;;6.10;;
64293;SDS011;50636;45.596;5.258;2023-04-26T03:19:56;25.88;;;5.50;;
64293;SDS011;50636;45.596;5.258;2023-04-26T03:22:22;11.60;;;5.13;;
64293;SDS011;50636;45.596;5.258;2023-04-26T03:24:48;13.45;;;6.38;;
64293;SDS011;50636;45.596;5.258;2023-04-26T03:27:14;14.05;;;6.28;;
64293;SDS011;50636;45.596;5.258;2023-04-26T03:29:40;14.48;;;5.25;;
64293;SDS011;50636;45.596;5.258;2023-04-26T03:32:05;12.23;;;4.53;;
64293;SDS011;50636;45.596;5.258;2023-04-26T03:34:31;9.23;;;4.57;;
64293;SDS011;50636;45.596;5.258;2023-04-26T03:36:57;21.02;;;4.53;;
64293;SDS011;50636;45.596;5.258;2023-04-26T03:39:23;11.85;;;4.90;;
64293;SDS011;50636;45.596;5.258;2023-04-26T03:41:49;7.53;;;4.38;;
64293;SDS011;50636;45.596;5.258;2023-04-26T03:44:15;14.35;;;4.60;;
64293;SDS011;50636;45.596;5.258;2023-04-26T03:46:41;8.52;;;4.28;;
64293;SDS011;50636;45.596;5.258;2023-04-26T03:49:07;9.20;;;3.88;;
64293;SDS011;50636;45.596;5.258;2023-04-26T03:51:33;12.02;;;4.38;;
64293;SDS011;50636;45.596;5.258;2023-04-26T03:53:58;17.98;;;5.05;;
64293;SDS011;50636;45.596;5.258;2023-04-26T03:56:24;23.52;;;11.13;;
64293;SDS011;50636;45.596;5.258;2023-04-26T03:58:50;9.55;;;4.97;;
64293;SDS011;50636;45.596;5.258;2023-04-26T04:01:16;15.55;;;4.85;;
64293;SDS011;50636;45.596;5.258;2023-04-26T04:03:43;11.27;;;4.80;;
64293;SDS011;50636;45.596;5.258;2023-04-26T04:06:09;14.15;;;4.65;;
64293;SDS011;50636;45.596;5.258;2023-04-26T04:08:35;16.42;;;6.80;;
64293;SDS011;50636;45.596;5.258;2023-04-26T04:11:00;16.80;;;6.03;;
64293;SDS011;50636;45.596;5.258;2023-04-26T04:13:26;9.95;;;5.15;;
64293;SDS011;50636;45.596;5.258;2023-04-26T04:15:52;14.95;;;5.57;;
64293;SDS011;50636;45.596;5.258;2023-04-26T04:18:18;15.52;;;5.15;;
64293;SDS011;50636;45.596;5.258;2023-04-26T04:20:44;9.27;;;4.78;;
64293;SDS011;50636;45.596;5.258;2023-04-26T04:23:10;15.63;;;5.47;;
64293;SDS011;50636;45.596;5.258;2023-04-26T04:25:36;17.95;;;4.65;;
64293;SDS011;50636;45.596;5.258;2023-04-26T04:28:03;11.50;;;5.10;;
64293;SDS011;50636;45.596;5.258;2023-04-26T04:30:29;17.77;;;5.30;;
64293;SDS011;50636;45.596;5.258;2023-04-26T04:32:58;11.60;;;5.50;;
64293;SDS011;50636;45.596;5.258;2023-04-26T04:35:24;27.83;;;5.45;;
64293;SDS011;50636;45.596;5.258;2023-04-26T04:37:57;13.60;;;4.85;;
64293;SDS011;50636;45.596;5.258;2023-04-26T04:40:23;12.60;;;5.10;;
64293;SDS011;50636;45.596;5.258;2023-04-26T04:42:50;11.57;;;4.90;;
64293;SDS011;50636;45.596;5.258;2023-04-26T04:45:18;16.50;;;5.20;;
64293;SDS011;50636;45.596;5.258;2023-04-26T04:47:44;13.18;;;5.45;;
64293;SDS011;50636;45.596;5.258;2023-04-26T04:50:10;23.65;;;5.30;;
64293;SDS011;50636;45.596;5.258;2023-04-26T04:52:36;13.63;;;4.30;;
64293;SDS011;50636;45.596;5.258;2023-04-26T04:55:02;13.93;;;5.10;;
64293;SDS011;50636;45.596;5.258;2023-04-26T04:57:29;17.50;;;7.13;;
64293;SDS011;50636;45.596;5.258;2023-04-26T04:59:56;11.25;;;5.20;;
64293;SDS011;50636;45.596;5.258;2023-04-26T05:02:22;16.23;;;5.93;;
64293;SDS011;50636;45.596;5.258;2023-04-26T05:04:49;10.50;;;4.82;;
64293;SDS011;50636;45.596;5.258;2023-04-26T05:07:15;13.35;;;5.47;;
64293;SDS011;50636;45.596;5.258;2023-04-26T05:09:42;16.88;;;5.05;;
64293;SDS011;50636;45.596;5.258;2023-04-26T05:12:08;13.32;;;5.03;;
64293;SDS011;50636;45.596;5.258;2023-04-26T05:14:34;27.05;;;6.78;;
64293;SDS011;50636;45.596;5.258;2023-04-26T05:17:00;8.23;;;4.55;;
64293;SDS011;50636;45.596;5.258;2023-04-26T05:19:26;9.63;;;4.60;;
64293;SDS011;50636;45.596;5.258;2023-04-26T05:21:52;19.80;;;5.47;;
64293;SDS011;50636;45.596;5.258;2023-04-26T05:24:17;15.88;;;5.43;;
64293;SDS011;50636;45.596;5.258;2023-04-26T05:26:43;16.52;;;4.43;;
64293;SDS011;50636;45.596;5.258;2023-04-26T05:29:09;9.98;;;4.70;;
64293;SDS011;50636;45.596;5.258;2023-04-26T05:31:35;11.35;;;4.88;;
64293;SDS011;50636;45.596;5.258;2023-04-26T05:34:01;10.73;;;4.90;;
64293;SDS011;50636;45.596;5.258;2023-04-26T05:36:27;13.35;;;4.90;;
64293;SDS011;50636;45.596;5.258;2023-04-26T05:38:53;13.00;;;4.70;;
64293;SDS011;50636;45.596;5.258;2023-04-26T05:41:19;17.00;;;5.88;;
64293;SDS011;50636;45.596;5.258;2023-04-26T05:43:46;9.15;;;5.03;;
64293;SDS011;50636;45.596;5.258;2023-04-26T05:46:12;17.00;;;5.10;;
64293;SDS011;50636;45.596;5.258;2023-04-26T05:48:37;16.38;;;5.97;;
64293;SDS011;50636;45.596;5.258;2023-04-26T05:51:04;15.32;;;5.65;;
64293;SDS011;50636;45.596;5.258;2023-04-26T05:53:29;26.30;;;6.72;;
64293;SDS011;50636;45.596;5.258;2023-04-26T05:55:55;17.08;;;5.15;;
64293;SDS011;50636;45.596;5.258;2023-04-26T05:58:21;29.77;;;6.57;;
64293;SDS011;50636;45.596;5.258;2023-04-26T06:00:47;27.42;;;9.05;;
64293;SDS011;50636;45.596;5.258;2023-04-26T06:03:13;22.95;;;6.45;;
64293;SDS011;50636;45.596;5.258;2023-04-26T06:05:39;14.32;;;6.45;;
64293;SDS011;50636;45.596;5.258;2023-04-26T06:08:05;22.80;;;7.00;;
64293;SDS011;50636;45.596;5.258;2023-04-26T06:10:32;8.90;;;5.18;;
64293;SDS011;50636;45.596;5.258;2023-04-26T06:12:59;15.35;;;4.88;;
64293;SDS011;50636;45.596;5.258;2023-04-26T06:15:25;20.95;;;5.45;;
64293;SDS011;50636;45.596;5.258;2023-04-26T06:17:52;17.23;;;4.82;;
64293;SDS011;50636;45.596;5.258;2023-04-26T06:20:17;12.05;;;4.85;;
64293;SDS011;50636;45.596;5.258;2023-04-26T06:22:43;16.15;;;5.10;;
64293;SDS011;50636;45.596;5.258;2023-04-26T06:25:09;15.90;;;5.30;;
64293;SDS011;50636;45.596;5.258;2023-04-26T06:27:35;14.95;;;4.47;;
64293;SDS011;50636;45.596;5.258;2023-04-26T06:30:03;10.48;;;4.40;;
64293;SDS011;50636;45.596;5.258;2023-04-26T06:32:30;8.63;;;4.20;;
64293;SDS011;50636;45.596;5.258;2023-04-26T06:34:56;10.77;;;4.10;;
64293;SDS011;50636;45.596;5.258;2023-04-26T06:37:22;10.45;;;4.45;;
64293;SDS011;50636;45.596;5.258;2023-04-26T06:39:48;10.57;;;4.70;;
64293;SDS011;50636;45.596;5.258;2023-04-26T06:42:14;19.30;;;5.25;;
64293;SDS011;50636;45.596;5.258;2023-04-26T06:44:39;9.27;;;4.18;;
64293;SDS011;50636;45.596;5.258;2023-04-26T06:47:06;8.63;;;4.63;;
64293;SDS011;50636;45.596;5.258;2023-04-26T06:49:33;10.18;;;5.00;;
64293;SDS011;50636;45.596;5.258;2023-04-26T06:52:00;14.35;;;4.72;;
64293;SDS011;50636;45.596;5.258;2023-04-26T06:54:27;19.30;;;5.35;;
64293;SDS011;50636;45.596;5.258;2023-04-26T06:56:53;11.18;;;4.47;;
64293;SDS011;50636;45.596;5.258;2023-04-26T06:59:19;10.52;;;4.22;;
64293;SDS011;50636;45.596;5.258;2023-04-26T07:01:45;11.32;;;4.80;;
64293;SDS011;50636;45.596;5.258;2023-04-26T07:04:10;14.15;;;4.53;;
64293;SDS011;50636;45.596;5.258;2023-04-26T07:06:37;34.53;;;5.90;;
64293;SDS011;50636;45.596;5.258;2023-04-26T07:09:03;15.63;;;5.43;;
64293;SDS011;50636;45.596;5.258;2023-04-26T07:11:29;18.38;;;4.68;;
64293;SDS011;50636;45.596;5.258;2023-04-26T07:13:55;17.60;;;4.20;;
64293;SDS011;50636;45.596;5.258;2023-04-26T07:16:22;15.95;;;4.82;;
64293;SDS011;50636;45.596;5.258;2023-04-26T07:18:48;15.70;;;4.53;;
64293;SDS011;50636;45.596;5.258;2023-04-26T07:21:14;14.27;;;4.90;;
64293;SDS011;50636;45.596;5.258;2023-04-26T07:23:40;17.27;;;4.93;;
64293;SDS011;50636;45.596;5.258;2023-04-26T07:26:06;13.05;;;4.80;;
64293;SDS011;50636;45.596;5.258;2023-04-26T07:28:34;15.13;;;4.45;;
64293;SDS011;50636;45.596;5.258;2023-04-26T07:31:00;16.63;;;4.22;;
64293;SDS011;50636;45.596;5.258;2023-04-26T07:33:26;17.83;;;4.45;;
64293;SDS011;50636;45.596;5.258;2023-04-26T07:35:52;40.03;;;6.90;;
64293;SDS011;50636;45.596;5.258;2023-04-26T07:38:21;15.63;;;3.90;;
64293;SDS011;50636;45.596;5.258;2023-04-26T07:40:49;28.20;;;5.50;;
64293;SDS011;50636;45.596;5.258;2023-04-26T07:43:16;13.60;;;3.90;;
64293;SDS011;50636;45.596;5.258;2023-04-26T07:45:43;10.68;;;3.65;;
64293;SDS011;50636;45.596;5.258;2023-04-26T07:48:08;13.00;;;3.75;;
64293;SDS011;50636;45.596;5.258;2023-04-26T07:50:34;15.52;;;3.30;;
64293;SDS011;50636;45.596;5.258;2023-04-26T07:53:00;13.52;;;3.88;;
64293;SDS011;50636;45.596;5.258;2023-04-26T07:55:26;8.18;;;3.38;;
64293;SDS011;50636;45.596;5.258;2023-04-26T07:57:52;20.42;;;3.97;;
64293;SDS011;50636;45.596;5.258;2023-04-26T08:00:18;10.15;;;3.38;;
64293;SDS011;50636;45.596;5.258;2023-04-26T08:02:46;13.55;;;3.17;;
64293;SDS011;50636;45.596;5.258;2023-04-26T08:05:12;23.90;;;4.47;;
64293;SDS011;50636;45.596;5.258;2023-04-26T08:07:39;48.40;;;5.07;;
64293;SDS011;50636;45.596;5.258;2023-04-26T08:10:05;40.03;;;4.95;;
64293;SDS011;50636;45.596;5.258;2023-04-26T08:12:32;74.70;;;6.07;;
64293;SDS011;50636;45.596;5.258;2023-04-26T08:14:59;36.10;;;4.40;;
64293;SDS011;50636;45.596;5.258;2023-04-26T08:17:26;54.47;;;6.07;;
64293;SDS011;50636;45.596;5.258;2023-04-26T08:19:52;80.25;;;6.25;;
64293;SDS011;50636;45.596;5.258;2023-04-26T08:22:17;32.90;;;4.43;;
64293;SDS011;50636;45.596;5.258;2023-04-26T08:24:48;20.33;;;4.90;;
64293;SDS011;50636;45.596;5.258;2023-04-26T08:27:15;32.30;;;5.00;;
64293;SDS011;50636;45.596;5.258;2023-04-26T08:29:41;59.03;;;7.18;;
64293;SDS011;50636;45.596;5.258;2023-04-26T08:32:07;64.78;;;6.38;;
64293;SDS011;50636;45.596;5.258;2023-04-26T08:34:33;93.43;;;7.63;;
64293;SDS011;50636;45.596;5.258;2023-04-26T08:36:59;28.17;;;5.60;;
64293;SDS011;50636;45.596;5.258;2023-04-26T08:39:25;31.98;;;4.90;;
64293;SDS011;50636;45.596;5.258;2023-04-26T08:41:54;24.60;;;4.40;;
64293;SDS011;50636;45.596;5.258;2023-04-26T08:44:23;9.02;;;3.67;;
64293;SDS011;50636;45.596;5.258;2023-04-26T08:46:54;11.38;;;3.58;;
64293;SDS011;50636;45.596;5.258;2023-04-26T08:49:41;16.40;;;3.78;;
64293;SDS011;50636;45.596;5.258;2023-04-26T08:52:12;6.57;;;3.08;;
64293;SDS011;50636;45.596;5.258;2023-04-26T08:54:41;10.38;;;3.78;;
64293;SDS011;50636;45.596;5.258;2023-04-26T08:57:07;16.52;;;4.00;;
64293;SDS011;50636;45.596;5.258;2023-04-26T08:59:36;10.05;;;3.63;;
64293;SDS011;50636;45.596;5.258;2023-04-26T09:02:06;14.68;;;3.80;;
64293;SDS011;50636;45.596;5.258;2023-04-26T09:04:35;7.38;;;3.10;;
64293;SDS011;50636;45.596;5.258;2023-04-26T09:07:02;11.57;;;3.60;;
64293;SDS011;50636;45.596;5.258;2023-04-26T09:09:35;16.02;;;4.10;;
64293;SDS011;50636;45.596;5.258;2023-04-26T09:12:06;14.18;;;3.10;;
64293;SDS011;50636;45.596;5.258;2023-04-26T09:14:33;7.28;;;3.03;;
64293;SDS011;50636;45.596;5.258;2023-04-26T09:16:58;11.80;;;3.28;;
64293;SDS011;50636;45.596;5.258;2023-04-26T09:19:35;10.80;;;3.50;;
64293;SDS011;50636;45.596;5.258;2023-04-26T09:22:01;35.97;;;4.15;;
64293;SDS011;50636;45.596;5.258;2023-04-26T09:24:28;45.88;;;4.80;;
64293;SDS011;50636;45.596;5.258;2023-04-26T09:27:10;25.75;;;4.18;;
64293;SDS011;50636;45.596;5.258;2023-04-26T09:29:36;31.55;;;4.63;;
64293;SDS011;50636;45.596;5.258;2023-04-26T09:32:02;13.90;;;2.95;;
64293;SDS011;50636;45.596;5.258;2023-04-26T09:34:28;13.15;;;3.55;;
64293;SDS011;50636;45.596;5.258;2023-04-26T09:36:55;41.47;;;5.03;;
64293;SDS011;50636;45.596;5.258;2023-04-26T09:41:57;8.48;;;2.67;;
64293;SDS011;50636;45.596;5.258;2023-04-26T09:44:24;7.43;;;1.98;;
64293;SDS011;50636;45.596;5.258;2023-04-26T09:46:59;14.30;;;2.70;;
64293;SDS011;50636;45.596;5.258;2023-04-26T09:49:27;5.28;;;2.10;;
64293;SDS011;50636;45.596;5.258;2023-04-26T09:52:02;8.18;;;2.20;;
64293;SDS011;50636;45.596;5.258;2023-04-26T09:57:05;9.07;;;2.50;;
64293;SDS011;50636;45.596;5.258;2023-04-26T09:59:50;16.85;;;2.65;;
64293;SDS011;50636;45.596;5.258;2023-04-26T10:02:20;7.65;;;2.15;;
64293;SDS011;50636;45.596;5.258;2023-04-26T10:04:48;5.20;;;1.92;;
64293;SDS011;50636;45.596;5.258;2023-04-26T10:07:17;7.07;;;2.22;;
64293;SDS011;50636;45.596;5.258;2023-04-26T10:09:44;7.07;;;2.30;;
64293;SDS011;50636;45.596;5.258;2023-04-26T10:12:12;11.65;;;2.08;;
64293;SDS011;50636;45.596;5.258;2023-04-26T10:14:39;7.65;;;1.90;;
64293;SDS011;50636;45.596;5.258;2023-04-26T10:17:06;10.18;;;2.15;;
64293;SDS011;50636;45.596;5.258;2023-04-26T10:19:35;10.25;;;1.80;;
64293;SDS011;50636;45.596;5.258;2023-04-26T10:22:07;8.60;;;1.70;;
64293;SDS011;50636;45.596;5.258;2023-04-26T10:24:37;6.80;;;1.88;;
64293;SDS011;50636;45.596;5.258;2023-04-26T10:27:03;9.75;;;2.90;;
64293;SDS011;50636;45.596;5.258;2023-04-26T10:30:15;4.88;;;1.40;;
64293;SDS011;50636;45.596;5.258;2023-04-26T10:32:18;9.30;;;1.90;;
64293;SDS011;50636;45.596;5.258;2023-04-26T10:34:44;9.05;;;1.70;;
64293;SDS011;50636;45.596;5.258;2023-04-26T10:40:40;5.93;;;1.80;;
64293;SDS011;50636;45.596;5.258;2023-04-26T10:45:41;10.63;;;1.73;;
64293;SDS011;50636;45.596;5.258;2023-04-26T10:54:11;4.00;;;1.30;;
64293;SDS011;50636;45.596;5.258;2023-04-26T11:01:35;4.53;;;1.77;;
64293;SDS011;50636;45.596;5.258;2023-04-26T11:04:07;9.13;;;1.90;;
64293;SDS011;50636;45.596;5.258;2023-04-26T11:06:50;3.78;;;1.60;;
64293;SDS011;50636;45.596;5.258;2023-04-26T11:09:33;3.03;;;1.38;;
64293;SDS011;50636;45.596;5.258;2023-04-26T11:12:06;7.15;;;1.98;;
64293;SDS011;50636;45.596;5.258;2023-04-26T11:14:36;6.70;;;1.70;;
64293;SDS011;50636;45.596;5.258;2023-04-26T11:17:03;11.73;;;2.05;;
64293;SDS011;50636;45.596;5.258;2023-04-26T11:19:33;13.82;;;2.42;;
64293;SDS011;50636;45.596;5.258;2023-04-26T11:21:59;6.47;;;1.73;;
64293;SDS011;50636;45.596;5.258;2023-04-26T11:24:26;9.40;;;2.00;;
64293;SDS011;50636;45.596;5.258;2023-04-26T11:26:54;6.70;;;1.63;;
64293;SDS011;50636;45.596;5.258;2023-04-26T11:29:20;7.45;;;1.83;;
64293;SDS011;50636;45.596;5.258;2023-04-26T11:31:55;6.00;;;1.52;;
64293;SDS011;50636;45.596;5.258;2023-04-26T11:34:32;4.82;;;1.60;;
64293;SDS011;50636;45.596;5.258;2023-04-26T11:37:02;8.80;;;2.10;;
64293;SDS011;50636;45.596;5.258;2023-04-26T11:39:35;6.75;;;1.92;;
64293;SDS011;50636;45.596;5.258;2023-04-26T11:42:08;5.70;;;1.38;;
64293;SDS011;50636;45.596;5.258;2023-04-26T11:44:35;8.18;;;1.60;;
64293;SDS011;50636;45.596;5.258;2023-04-26T11:47:02;5.97;;;1.83;;
64293;SDS011;50636;45.596;5.258;2023-04-26T11:49:35;13.70;;;2.00;;
64293;SDS011;50636;45.596;5.258;2023-04-26T11:52:02;3.55;;;1.48;;
64293;SDS011;50636;45.596;5.258;2023-04-26T11:54:33;10.82;;;2.42;;
64293;SDS011;50636;45.596;5.258;2023-04-26T11:57:00;8.02;;;1.50;;
64293;SDS011;50636;45.596;5.258;2023-04-26T11:59:38;5.90;;;1.52;;
64293;SDS011;50636;45.596;5.258;2023-04-26T12:02:07;10.75;;;1.70;;
64293;SDS011;50636;45.596;5.258;2023-04-26T12:04:33;6.55;;;1.45;;
64293;SDS011;50636;45.596;5.258;2023-04-26T12:06:59;12.02;;;2.13;;
64293;SDS011;50636;45.596;5.258;2023-04-26T12:09:26;4.88;;;1.45;;
64293;SDS011;50636;45.596;5.258;2023-04-26T12:12:00;9.93;;;1.60;;
64293;SDS011;50636;45.596;5.258;2023-04-26T12:14:33;8.77;;;1.75;;
64293;SDS011;50636;45.596;5.258;2023-04-26T12:17:00;9.35;;;1.58;;
64293;SDS011;50636;45.596;5.258;2023-04-26T12:19:27;7.43;;;1.58;;
64293;SDS011;50636;45.596;5.258;2023-04-26T12:22:06;11.15;;;3.00;;
64293;SDS011;50636;45.596;5.258;2023-04-26T12:24:33;18.25;;;2.47;;
64293;SDS011;50636;45.596;5.258;2023-04-26T12:27:03;10.30;;;1.77;;
64293;SDS011;50636;45.596;5.258;2023-04-26T12:29:33;6.53;;;1.55;;
64293;SDS011;50636;45.596;5.258;2023-04-26T12:31:59;11.55;;;1.65;;
64293;SDS011;50636;45.596;5.258;2023-04-26T12:34:26;9.93;;;1.70;;
64293;SDS011;50636;45.596;5.258;2023-04-26T12:36:52;5.05;;;1.52;;
64293;SDS011;50636;45.596;5.258;2023-04-26T12:39:17;11.75;;;2.13;;
64293;SDS011;50636;45.596;5.258;2023-04-26T12:41:43;9.60;;;1.90;;
64293;SDS011;50636;45.596;5.258;2023-04-26T12:44:10;6.40;;;2.17;;
64293;SDS011;50636;45.596;5.258;2023-04-26T12:46:37;10.75;;;2.00;;
64293;SDS011;50636;45.596;5.258;2023-04-26T12:49:03;7.10;;;1.67;;
64293;SDS011;50636;45.596;5.258;2023-04-26T12:51:29;8.00;;;1.40;;
64293;SDS011;50636;45.596;5.258;2023-04-26T12:53:56;11.70;;;1.85;;
64293;SDS011;50636;45.596;5.258;2023-04-26T12:56:22;10.52;;;1.50;;
64293;SDS011;50636;45.596;5.258;2023-04-26T12:58:49;15.63;;;2.88;;
64293;SDS011;50636;45.596;5.258;2023-04-26T13:01:15;20.48;;;2.47;;
64293;SDS011;50636;45.596;5.258;2023-04-26T13:03:41;8.32;;;1.60;;
64293;SDS011;50636;45.596;5.258;2023-04-26T13:06:07;11.38;;;1.90;;
64293;SDS011;50636;45.596;5.258;2023-04-26T13:08:33;10.27;;;1.83;;
64293;SDS011;50636;45.596;5.258;2023-04-26T13:10:59;4.10;;;1.20;;
64293;SDS011;50636;45.596;5.258;2023-04-26T13:13:25;3.72;;;1.08;;
64293;SDS011;50636;45.596;5.258;2023-04-26T13:15:51;9.52;;;1.20;;
64293;SDS011;50636;45.596;5.258;2023-04-26T13:18:17;45.75;;;4.82;;
64293;SDS011;50636;45.596;5.258;2023-04-26T13:20:46;4.75;;;1.33;;
64293;SDS011;50636;45.596;5.258;2023-04-26T13:23:12;8.05;;;1.50;;
64293;SDS011;50636;45.596;5.258;2023-04-26T13:25:38;7.53;;;1.50;;
64293;SDS011;50636;45.596;5.258;2023-04-26T13:28:04;5.45;;;1.33;;
64293;SDS011;50636;45.596;5.258;2023-04-26T13:30:30;9.40;;;1.70;;
64293;SDS011;50636;45.596;5.258;2023-04-26T13:32:56;5.63;;;1.20;;
64293;SDS011;50636;45.596;5.258;2023-04-26T13:35:21;2.05;;;1.08;;
64293;SDS011;50636;45.596;5.258;2023-04-26T13:37:47;10.52;;;2.03;;
64293;SDS011;50636;45.596;5.258;2023-04-26T13:40:13;6.85;;;1.30;;
64293;SDS011;50636;45.596;5.258;2023-04-26T13:42:39;9.02;;;1.58;;
64293;SDS011;50636;45.596;5.258;2023-04-26T13:45:05;3.53;;;1.30;;
64293;SDS011;50636;45.596;5.258;2023-04-26T13:47:34;5.03;;;1.15;;
64293;SDS011;50636;45.596;5.258;2023-04-26T13:50:00;6.28;;;1.83;;
64293;SDS011;50636;45.596;5.258;2023-04-26T13:52:26;3.00;;;1.20;;
64293;SDS011;50636;45.596;5.258;2023-04-26T13:54:52;4.57;;;1.00;;
64293;SDS011;50636;45.596;5.258;2023-04-26T13:57:18;8.88;;;1.40;;
64293;SDS011;50636;45.596;5.258;2023-04-26T13:59:45;10.02;;;1.52;;
64293;SDS011;50636;45.596;5.258;2023-04-26T14:02:12;2.63;;;1.08;;
64293;SDS011;50636;45.596;5.258;2023-04-26T14:04:38;3.42;;;1.08;;
64293;SDS011;50636;45.596;5.258;2023-04-26T14:07:04;10.25;;;1.40;;
64293;SDS011;50636;45.596;5.258;2023-04-26T14:09:31;7.60;;;1.50;;
64293;SDS011;50636;45.596;5.258;2023-04-26T14:11:57;3.45;;;1.10;;
64293;SDS011;50636;45.596;5.258;2023-04-26T14:14:24;5.85;;;1.50;;
64293;SDS011;50636;45.596;5.258;2023-04-26T14:16:50;1.73;;;0.95;;
64293;SDS011;50636;45.596;5.258;2023-04-26T14:19:16;8.95;;;1.80;;
64293;SDS011;50636;45.596;5.258;2023-04-26T14:21:42;8.82;;;1.58;;
64293;SDS011;50636;45.596;5.258;2023-04-26T14:24:08;5.13;;;0.93;;
64293;SDS011;50636;45.596;5.258;2023-04-26T14:26:35;6.10;;;1.55;;
64293;SDS011;50636;45.596;5.258;2023-04-26T14:29:01;5.93;;;1.25;;
64293;SDS011;50636;45.596;5.258;2023-04-26T14:31:29;6.57;;;1.20;;
64293;SDS011;50636;45.596;5.258;2023-04-26T14:33:56;5.88;;;1.33;;
64293;SDS011;50636;45.596;5.258;2023-04-26T14:36:22;8.20;;;1.60;;
64293;SDS011;50636;45.596;5.258;2023-04-26T14:38:48;20.08;;;1.60;;
64293;SDS011;50636;45.596;5.258;2023-04-26T14:41:14;4.70;;;1.27;;
64293;SDS011;50636;45.596;5.258;2023-04-26T14:43:41;5.35;;;1.20;;
64293;SDS011;50636;45.596;5.258;2023-04-26T14:46:07;10.90;;;1.60;;
64293;SDS011;50636;45.596;5.258;2023-04-26T14:48:33;9.45;;;1.92;;
64293;SDS011;50636;45.596;5.258;2023-04-26T14:50:59;3.47;;;2.15;;
64293;SDS011;50636;45.596;5.258;2023-04-26T14:53:25;5.40;;;1.77;;
64293;SDS011;50636;45.596;5.258;2023-04-26T14:55:57;9.35;;;1.30;;
64293;SDS011;50636;45.596;5.258;2023-04-26T14:58:24;9.65;;;2.00;;
64293;SDS011;50636;45.596;5.258;2023-04-26T15:00:50;6.10;;;1.33;;